sensor_id;sensor_type;location;lat;lon;timestamp;pressure;altitude;pressure_sealevel;temperature;humidity
53514;BME280;39768;54.148;12.174;2023-11-22T00:32:14;102717.19;;;1.81;73.11
53514;BME280;39768;54.148;12.174;2023-11-22T00:36:16;102723.31;;;1.80;74.59
53514;BME280;39768;54.148;12.174;2023-11-22T01:37:51;102758.56;;;1.56;73.44
53514;BME280;39768;54.148;12.174;2023-11-22T02:36:42;102782.44;;;0.67;75.96
53514;BME280;39768;54.148;12.174;2023-11-22T03:45:48;102845.38;;;1.03;66.92
53514;BME280;39768;54.148;12.174;2023-11-22T04:30:49;102858.72;;;0.42;69.34
53514;BME280;39768;54.148;12.174;2023-11-22T04:34:51;102864.13;;;0.24;68.65
53514;BME280;39768;54.148;12.174;2023-11-22T04:38:53;102872.59;;;-0.04;69.04
53514;BME280;39768;54.148;12.174;2023-11-22T04:58:18;102835.16;;;0.67;66.40
53514;BME280;39768;54.148;12.174;2023-11-22T05:16:33;102820.19;;;0.66;69.45
53514;BME280;39768;54.148;12.174;2023-11-22T05:20:35;102835.81;;;-0.43;75.79
53514;BME280;39768;54.148;12.174;2023-11-22T05:24:36;102852.81;;;0.26;73.64
53514;BME280;39768;54.148;12.174;2023-11-22T05:28:42;102862.06;;;0.81;69.82
53514;BME280;39768;54.148;12.174;2023-11-22T06:36:23;102863.81;;;-0.24;74.11
53514;BME280;39768;54.148;12.174;2023-11-22T07:03:54;102843.28;;;-0.52;78.13
53514;BME280;39768;54.148;12.174;2023-11-22T07:07:56;102842.94;;;0.00;75.10
53514;BME280;39768;54.148;12.174;2023-11-22T07:35:43;102885.22;;;0.67;72.33
53514;BME280;39768;54.148;12.174;2023-11-22T07:39:44;102890.22;;;1.03;71.77
53514;BME280;39768;54.148;12.174;2023-11-22T07:43:46;102903.31;;;1.46;70.12
53514;BME280;39768;54.148;12.174;2023-11-22T07:47:47;102918.78;;;1.36;70.14
53514;BME280;39768;54.148;12.174;2023-11-22T08:06:21;102914.16;;;1.77;73.23
53514;BME280;39768;54.148;12.174;2023-11-22T08:54:38;102871.50;;;2.68;74.81
53514;BME280;39768;54.148;12.174;2023-11-22T08:58:40;102870.66;;;2.69;74.48
53514;BME280;39768;54.148;12.174;2023-11-22T09:02:41;102884.25;;;2.81;74.99
53514;BME280;39768;54.148;12.174;2023-11-22T09:06:43;102876.00;;;2.99;73.07
53514;BME280;39768;54.148;12.174;2023-11-22T09:10:44;102883.41;;;3.10;71.62
53514;BME280;39768;54.148;12.174;2023-11-22T09:14:46;102888.63;;;3.07;70.71
53514;BME280;39768;54.148;12.174;2023-11-22T09:18:48;102910.56;;;3.05;71.98
53514;BME280;39768;54.148;12.174;2023-11-22T09:22:52;102913.78;;;3.23;72.91
53514;BME280;39768;54.148;12.174;2023-11-22T09:26:54;102902.38;;;2.69;75.02
53514;BME280;39768;54.148;12.174;2023-11-22T09:30:55;102918.69;;;2.56;79.00
53514;BME280;39768;54.148;12.174;2023-11-22T09:35:03;102900.38;;;2.62;79.73
53514;BME280;39768;54.148;12.174;2023-11-22T09:39:05;102910.03;;;3.43;76.75
53514;BME280;39768;54.148;12.174;2023-11-22T09:47:47;102907.22;;;3.99;71.65
53514;BME280;39768;54.148;12.174;2023-11-22T09:51:51;102912.81;;;3.48;73.37
53514;BME280;39768;54.148;12.174;2023-11-22T09:55:53;102900.59;;;3.53;74.06
53514;BME280;39768;54.148;12.174;2023-11-22T09:59:55;102910.13;;;4.09;71.92
53514;BME280;39768;54.148;12.174;2023-11-22T10:03:59;102899.94;;;3.92;72.25
53514;BME280;39768;54.148;12.174;2023-11-22T10:08:01;102897.66;;;4.38;71.03
53514;BME280;39768;54.148;12.174;2023-11-22T10:12:03;102876.75;;;4.50;70.71
53514;BME280;39768;54.148;12.174;2023-11-22T10:16:11;102843.63;;;4.69;70.13
53514;BME280;39768;54.148;12.174;2023-11-22T10:20:13;102875.91;;;4.89;69.59
53514;BME280;39768;54.148;12.174;2023-11-22T10:24:20;102856.53;;;4.92;67.82
53514;BME280;39768;54.148;12.174;2023-11-22T10:28:26;102841.56;;;4.58;66.29
53514;BME280;39768;54.148;12.174;2023-11-22T10:32:27;102831.53;;;4.44;63.59
53514;BME280;39768;54.148;12.174;2023-11-22T10:36:29;102835.34;;;4.19;61.37
53514;BME280;39768;54.148;12.174;2023-11-22T10:40:31;102827.41;;;4.21;59.03
53514;BME280;39768;54.148;12.174;2023-11-22T10:44:33;102825.06;;;4.69;57.69
53514;BME280;39768;54.148;12.174;2023-11-22T10:48:35;102812.53;;;4.26;54.12
53514;BME280;39768;54.148;12.174;2023-11-22T10:52:41;102818.47;;;4.16;54.77
53514;BME280;39768;54.148;12.174;2023-11-22T10:56:46;102827.50;;;4.60;50.75
53514;BME280;39768;54.148;12.174;2023-11-22T11:00:49;102812.28;;;4.90;50.66
53514;BME280;39768;54.148;12.174;2023-11-22T11:04:59;102800.13;;;4.25;50.63
53514;BME280;39768;54.148;12.174;2023-11-22T11:09:05;102790.50;;;4.66;49.54
53514;BME280;39768;54.148;12.174;2023-11-22T11:13:08;102779.78;;;4.24;48.95
53514;BME280;39768;54.148;12.174;2023-11-22T11:17:13;102787.41;;;4.46;47.78
53514;BME280;39768;54.148;12.174;2023-11-22T11:21:16;102757.78;;;4.66;47.21
53514;BME280;39768;54.148;12.174;2023-11-22T11:25:18;102727.19;;;3.69;47.55
53514;BME280;39768;54.148;12.174;2023-11-22T11:29:33;102728.34;;;3.45;47.02
53514;BME280;39768;54.148;12.174;2023-11-22T11:33:53;102710.41;;;3.35;46.47
53514;BME280;39768;54.148;12.174;2023-11-22T11:37:59;102693.78;;;3.74;47.70
53514;BME280;39768;54.148;12.174;2023-11-22T11:42:12;102688.53;;;3.77;47.44
53514;BME280;39768;54.148;12.174;2023-11-22T11:46:20;102702.06;;;3.53;47.00
53514;BME280;39768;54.148;12.174;2023-11-22T11:50:24;102732.84;;;4.20;46.65
53514;BME280;39768;54.148;12.174;2023-11-22T11:54:26;102715.41;;;3.92;48.10
53514;BME280;39768;54.148;12.174;2023-11-22T11:58:27;102724.28;;;3.58;47.54
53514;BME280;39768;54.148;12.174;2023-11-22T12:02:29;102724.72;;;3.76;47.84
53514;BME280;39768;54.148;12.174;2023-11-22T12:06:30;102713.88;;;4.78;47.14
53514;BME280;39768;54.148;12.174;2023-11-22T12:10:35;102704.47;;;4.53;47.62
53514;BME280;39768;54.148;12.174;2023-11-22T12:14:36;102733.75;;;4.19;46.24
53514;BME280;39768;54.148;12.174;2023-11-22T12:18:41;102729.47;;;4.63;45.98
53514;BME280;39768;54.148;12.174;2023-11-22T12:22:45;102712.72;;;4.27;46.28
53514;BME280;39768;54.148;12.174;2023-11-22T12:26:47;102691.84;;;4.42;45.73
53514;BME280;39768;54.148;12.174;2023-11-22T12:30:51;102650.59;;;4.14;44.74
53514;BME280;39768;54.148;12.174;2023-11-22T12:34:53;102645.53;;;3.51;44.78
53514;BME280;39768;54.148;12.174;2023-11-22T12:38:55;102673.25;;;4.01;43.31
53514;BME280;39768;54.148;12.174;2023-11-22T12:43:00;102663.13;;;3.83;43.76
53514;BME280;39768;54.148;12.174;2023-11-22T12:47:02;102644.78;;;3.93;43.78
53514;BME280;39768;54.148;12.174;2023-11-22T12:51:15;102651.53;;;4.16;42.91
53514;BME280;39768;54.148;12.174;2023-11-22T12:55:27;102645.28;;;3.76;43.61
53514;BME280;39768;54.148;12.174;2023-11-22T12:59:29;102618.38;;;3.96;43.58
53514;BME280;39768;54.148;12.174;2023-11-22T13:03:32;102623.22;;;4.15;44.16
53514;BME280;39768;54.148;12.174;2023-11-22T13:07:35;102601.69;;;4.00;44.70
53514;BME280;39768;54.148;12.174;2023-11-22T13:11:36;102610.75;;;4.11;44.90
53514;BME280;39768;54.148;12.174;2023-11-22T13:15:38;102592.31;;;3.76;46.39
53514;BME280;39768;54.148;12.174;2023-11-22T13:19:41;102576.06;;;3.99;48.18
53514;BME280;39768;54.148;12.174;2023-11-22T13:23:44;102592.25;;;3.37;48.30
53514;BME280;39768;54.148;12.174;2023-11-22T13:27:47;102612.00;;;3.88;47.10
53514;BME280;39768;54.148;12.174;2023-11-22T13:31:49;102621.00;;;3.24;48.33
53514;BME280;39768;54.148;12.174;2023-11-22T13:35:51;102630.75;;;3.59;48.12
53514;BME280;39768;54.148;12.174;2023-11-22T13:39:53;102630.19;;;3.05;49.00
53514;BME280;39768;54.148;12.174;2023-11-22T13:43:54;102647.16;;;3.44;48.08
53514;BME280;39768;54.148;12.174;2023-11-22T13:47:56;102641.09;;;3.50;47.92
53514;BME280;39768;54.148;12.174;2023-11-22T13:52:08;102651.47;;;3.77;47.32
53514;BME280;39768;54.148;12.174;2023-11-22T13:56:10;102655.56;;;3.31;47.88
53514;BME280;39768;54.148;12.174;2023-11-22T14:00:14;102641.00;;;3.47;47.04
53514;BME280;39768;54.148;12.174;2023-11-22T14:04:20;102653.72;;;3.60;45.65
53514;BME280;39768;54.148;12.174;2023-11-22T14:08:21;102635.56;;;3.75;45.76
53514;BME280;39768;54.148;12.174;2023-11-22T14:12:23;102624.81;;;3.69;44.46
53514;BME280;39768;54.148;12.174;2023-11-22T14:16:25;102628.81;;;3.88;44.03
53514;BME280;39768;54.148;12.174;2023-11-22T14:20:27;102617.31;;;3.52;44.98
53514;BME280;39768;54.148;12.174;2023-11-22T14:24:31;102620.97;;;3.57;44.06
53514;BME280;39768;54.148;12.174;2023-11-22T14:28:38;102630.69;;;3.56;43.88
53514;BME280;39768;54.148;12.174;2023-11-22T14:32:40;102630.72;;;3.58;43.94
53514;BME280;39768;54.148;12.174;2023-11-22T14:36:43;102622.31;;;3.39;43.20
53514;BME280;39768;54.148;12.174;2023-11-22T14:40:46;102608.88;;;3.32;43.28
53514;BME280;39768;54.148;12.174;2023-11-22T14:44:47;102618.09;;;3.83;43.20
53514;BME280;39768;54.148;12.174;2023-11-22T14:48:49;102590.81;;;3.17;44.11
53514;BME280;39768;54.148;12.174;2023-11-22T14:52:51;102581.34;;;3.61;42.84
53514;BME280;39768;54.148;12.174;2023-11-22T14:56:53;102582.41;;;3.68;43.04
53514;BME280;39768;54.148;12.174;2023-11-22T15:00:57;102566.28;;;3.23;44.62
53514;BME280;39768;54.148;12.174;2023-11-22T15:04:59;102565.81;;;3.76;44.24
53514;BME280;39768;54.148;12.174;2023-11-22T15:09:01;102557.50;;;3.58;43.97
53514;BME280;39768;54.148;12.174;2023-11-22T15:13:03;102541.69;;;3.27;44.67
53514;BME280;39768;54.148;12.174;2023-11-22T15:17:04;102518.97;;;3.35;45.55
53514;BME280;39768;54.148;12.174;2023-11-22T15:21:06;102516.06;;;3.24;45.33
53514;BME280;39768;54.148;12.174;2023-11-22T15:25:08;102500.22;;;2.91;46.11
53514;BME280;39768;54.148;12.174;2023-11-22T15:29:11;102504.41;;;2.82;45.24
53514;BME280;39768;54.148;12.174;2023-11-22T15:33:13;102490.44;;;2.53;46.71
53514;BME280;39768;54.148;12.174;2023-11-22T15:37:15;102493.22;;;2.59;47.44
53514;BME280;39768;54.148;12.174;2023-11-22T15:41:18;102474.97;;;2.68;47.50
53514;BME280;39768;54.148;12.174;2023-11-22T15:45:24;102462.59;;;2.67;47.73
53514;BME280;39768;54.148;12.174;2023-11-22T15:49:26;102436.91;;;2.61;47.36
53514;BME280;39768;54.148;12.174;2023-11-22T15:53:27;102422.09;;;2.68;46.92
53514;BME280;39768;54.148;12.174;2023-11-22T15:57:29;102413.75;;;2.51;47.47
53514;BME280;39768;54.148;12.174;2023-11-22T16:01:32;102404.66;;;2.76;47.10
53514;BME280;39768;54.148;12.174;2023-11-22T16:05:33;102380.28;;;2.17;48.44
53514;BME280;39768;54.148;12.174;2023-11-22T16:09:35;102367.41;;;2.31;47.54
53514;BME280;39768;54.148;12.174;2023-11-22T16:13:39;102352.06;;;2.51;48.61
53514;BME280;39768;54.148;12.174;2023-11-22T16:17:41;102352.81;;;2.45;49.88
53514;BME280;39768;54.148;12.174;2023-11-22T16:21:43;102352.41;;;1.95;49.10
53514;BME280;39768;54.148;12.174;2023-11-22T16:25:45;102334.03;;;2.00;50.77
53514;BME280;39768;54.148;12.174;2023-11-22T16:29:47;102323.13;;;2.55;50.67
53514;BME280;39768;54.148;12.174;2023-11-22T16:33:49;102331.31;;;2.31;50.65
53514;BME280;39768;54.148;12.174;2023-11-22T16:37:51;102311.84;;;2.26;50.14
53514;BME280;39768;54.148;12.174;2023-11-22T16:41:53;102312.06;;;2.73;49.76
53514;BME280;39768;54.148;12.174;2023-11-22T16:45:55;102295.22;;;2.68;49.03
53514;BME280;39768;54.148;12.174;2023-11-22T16:49:57;102299.78;;;2.75;49.89
53514;BME280;39768;54.148;12.174;2023-11-22T16:53:58;102301.09;;;2.55;49.18
53514;BME280;39768;54.148;12.174;2023-11-22T16:58:00;102286.72;;;2.81;48.06
53514;BME280;39768;54.148;12.174;2023-11-22T17:02:10;102281.53;;;2.87;48.93
53514;BME280;39768;54.148;12.174;2023-11-22T17:06:11;102279.00;;;2.92;47.19
53514;BME280;39768;54.148;12.174;2023-11-22T17:10:13;102262.06;;;2.82;48.42
53514;BME280;39768;54.148;12.174;2023-11-22T17:14:15;102256.56;;;2.73;48.28
53514;BME280;39768;54.148;12.174;2023-11-22T17:18:16;102250.72;;;2.88;48.71
53514;BME280;39768;54.148;12.174;2023-11-22T17:22:18;102238.34;;;2.87;48.73
53514;BME280;39768;54.148;12.174;2023-11-22T17:26:20;102243.06;;;3.00;48.63
53514;BME280;39768;54.148;12.174;2023-11-22T17:30:22;102210.75;;;2.74;48.48
53514;BME280;39768;54.148;12.174;2023-11-22T17:34:27;102206.50;;;2.81;48.65
53514;BME280;39768;54.148;12.174;2023-11-22T17:38:29;102183.53;;;2.78;49.47
53514;BME280;39768;54.148;12.174;2023-11-22T17:42:30;102187.81;;;2.32;50.69
53514;BME280;39768;54.148;12.174;2023-11-22T17:46:32;102173.28;;;2.51;50.53
